Terminal Aerodrome Forecast
Issued by NWS Sterling, VA

Home | Current Version | Previous Version | Text Only | Print | Product List | Glossary On
Versions: 1 2 3 4 5 6 7 8 9 10 11 12 13 14 15 16 17 18 19 20 21 22 23 24
000
FTUS41 KLWX 292059 AAE
TAFBWI
TAF AMD
KBWI 292059Z 2921/3024 17010KT P6SM -SHRA BKN040
     FM292200 18010KT P6SM BKN040
     FM300100 17008KT P6SM SCT040
     FM300700 19009KT P6SM BKN050
     FM301900 22007KT P6SM -SHRA VCTS BKN050CB
     FM302200 29007KT P6SM BKN070=

USA.gov is the U.S. government's official web portal to all federal, state and local government web resources and services.